sensor_id;sensor_type;location;lat;lon;timestamp;P1;durP1;ratioP1;P2;durP2;ratioP2
39880;SDS011;25554;44.954;10.068;2023-12-29T04:26:21;54.78;;;28.92;;
39880;SDS011;25554;44.954;10.068;2023-12-29T05:36:34;53.13;;;27.52;;
39880;SDS011;25554;44.954;10.068;2023-12-29T05:56:07;48.78;;;25.98;;
39880;SDS011;25554;44.954;10.068;2023-12-29T05:59:23;51.08;;;29.02;;
39880;SDS011;25554;44.954;10.068;2023-12-29T06:01:48;54.17;;;27.08;;
39880;SDS011;25554;44.954;10.068;2023-12-29T06:04:34;51.90;;;28.63;;
39880;SDS011;25554;44.954;10.068;2023-12-29T06:07:37;56.08;;;28.95;;
39880;SDS011;25554;44.954;10.068;2023-12-29T06:10:07;50.65;;;29.00;;
39880;SDS011;25554;44.954;10.068;2023-12-29T06:16:53;46.53;;;27.58;;
39880;SDS011;25554;44.954;10.068;2023-12-29T06:31:51;56.70;;;29.58;;
39880;SDS011;25554;44.954;10.068;2023-12-29T06:35:02;51.57;;;29.23;;
39880;SDS011;25554;44.954;10.068;2023-12-29T06:37:38;52.42;;;29.13;;
39880;SDS011;25554;44.954;10.068;2023-12-29T06:42:39;51.03;;;29.05;;
39880;SDS011;25554;44.954;10.068;2023-12-29T06:45:09;50.63;;;30.48;;
39880;SDS011;25554;44.954;10.068;2023-12-29T06:47:36;58.17;;;31.92;;
39880;SDS011;25554;44.954;10.068;2023-12-29T06:50:16;51.22;;;29.85;;
39880;SDS011;25554;44.954;10.068;2023-12-29T06:53:16;48.88;;;28.33;;
39880;SDS011;25554;44.954;10.068;2023-12-29T06:59:01;47.70;;;29.00;;
39880;SDS011;25554;44.954;10.068;2023-12-29T07:05:40;59.50;;;32.85;;
39880;SDS011;25554;44.954;10.068;2023-12-29T07:08:17;54.80;;;30.70;;
39880;SDS011;25554;44.954;10.068;2023-12-29T07:11:06;54.95;;;29.42;;
39880;SDS011;25554;44.954;10.068;2023-12-29T07:14:17;58.60;;;31.58;;
39880;SDS011;25554;44.954;10.068;2023-12-29T07:20:55;60.67;;;31.92;;
39880;SDS011;25554;44.954;10.068;2023-12-29T07:28:46;53.63;;;31.33;;
39880;SDS011;25554;44.954;10.068;2023-12-29T07:35:46;58.10;;;32.63;;
39880;SDS011;25554;44.954;10.068;2023-12-29T07:38:16;54.92;;;31.13;;
39880;SDS011;25554;44.954;10.068;2023-12-29T07:40:49;56.85;;;30.02;;
39880;SDS011;25554;44.954;10.068;2023-12-29T07:53:11;49.50;;;29.17;;
39880;SDS011;25554;44.954;10.068;2023-12-29T07:56:04;58.28;;;32.97;;
39880;SDS011;25554;44.954;10.068;2023-12-29T07:59:07;57.67;;;30.33;;
39880;SDS011;25554;44.954;10.068;2023-12-29T08:02:13;62.88;;;33.03;;
39880;SDS011;25554;44.954;10.068;2023-12-29T08:04:33;56.22;;;30.55;;
39880;SDS011;25554;44.954;10.068;2023-12-29T08:07:29;61.25;;;33.33;;
39880;SDS011;25554;44.954;10.068;2023-12-29T08:10:55;55.47;;;30.95;;
39880;SDS011;25554;44.954;10.068;2023-12-29T08:13:20;53.90;;;31.35;;
39880;SDS011;25554;44.954;10.068;2023-12-29T08:16:23;54.28;;;30.95;;
39880;SDS011;25554;44.954;10.068;2023-12-29T08:22:47;53.67;;;29.63;;
39880;SDS011;25554;44.954;10.068;2023-12-29T08:26:02;56.22;;;31.65;;
39880;SDS011;25554;44.954;10.068;2023-12-29T08:28:32;54.85;;;30.08;;
39880;SDS011;25554;44.954;10.068;2023-12-29T08:31:02;54.25;;;30.73;;
39880;SDS011;25554;44.954;10.068;2023-12-29T08:33:35;53.25;;;29.52;;
39880;SDS011;25554;44.954;10.068;2023-12-29T08:38:56;52.28;;;31.08;;
39880;SDS011;25554;44.954;10.068;2023-12-29T08:41:23;48.30;;;28.27;;
39880;SDS011;25554;44.954;10.068;2023-12-29T08:46:16;48.58;;;29.60;;
39880;SDS011;25554;44.954;10.068;2023-12-29T08:48:42;54.35;;;30.42;;
39880;SDS011;25554;44.954;10.068;2023-12-29T08:51:09;52.60;;;29.40;;
39880;SDS011;25554;44.954;10.068;2023-12-29T08:53:35;56.33;;;30.42;;
39880;SDS011;25554;44.954;10.068;2023-12-29T08:58:28;48.00;;;27.73;;
39880;SDS011;25554;44.954;10.068;2023-12-29T09:00:56;56.65;;;29.90;;
39880;SDS011;25554;44.954;10.068;2023-12-29T09:05:49;54.60;;;30.90;;
39880;SDS011;25554;44.954;10.068;2023-12-29T09:08:15;61.92;;;31.95;;
39880;SDS011;25554;44.954;10.068;2023-12-29T09:13:08;52.60;;;29.58;;
39880;SDS011;25554;44.954;10.068;2023-12-29T09:15:35;53.85;;;30.95;;
39880;SDS011;25554;44.954;10.068;2023-12-29T09:18:01;58.72;;;32.15;;
39880;SDS011;25554;44.954;10.068;2023-12-29T09:22:54;55.40;;;31.02;;
39880;SDS011;25554;44.954;10.068;2023-12-29T09:25:22;49.42;;;30.35;;
39880;SDS011;25554;44.954;10.068;2023-12-29T09:27:48;55.22;;;32.40;;
39880;SDS011;25554;44.954;10.068;2023-12-29T09:30:19;53.15;;;29.70;;
39880;SDS011;25554;44.954;10.068;2023-12-29T09:32:45;51.22;;;30.05;;
39880;SDS011;25554;44.954;10.068;2023-12-29T09:35:21;51.33;;;30.27;;
39880;SDS011;25554;44.954;10.068;2023-12-29T09:38:06;50.85;;;28.55;;
39880;SDS011;25554;44.954;10.068;2023-12-29T09:40:35;49.95;;;28.15;;
39880;SDS011;25554;44.954;10.068;2023-12-29T09:43:33;47.03;;;26.90;;
39880;SDS011;25554;44.954;10.068;2023-12-29T09:45:59;44.53;;;27.77;;
39880;SDS011;25554;44.954;10.068;2023-12-29T09:48:28;44.75;;;27.13;;
39880;SDS011;25554;44.954;10.068;2023-12-29T09:50:57;49.35;;;28.45;;
39880;SDS011;25554;44.954;10.068;2023-12-29T09:53:24;45.92;;;28.23;;
39880;SDS011;25554;44.954;10.068;2023-12-29T09:55:51;43.92;;;27.05;;
39880;SDS011;25554;44.954;10.068;2023-12-29T09:58:21;48.83;;;29.80;;
39880;SDS011;25554;44.954;10.068;2023-12-29T10:00:51;55.70;;;30.50;;
39880;SDS011;25554;44.954;10.068;2023-12-29T10:03:18;46.97;;;27.73;;
39880;SDS011;25554;44.954;10.068;2023-12-29T10:05:46;44.58;;;25.33;;
39880;SDS011;25554;44.954;10.068;2023-12-29T10:08:16;45.20;;;27.67;;
39880;SDS011;25554;44.954;10.068;2023-12-29T10:10:45;47.13;;;26.67;;
39880;SDS011;25554;44.954;10.068;2023-12-29T10:13:15;44.17;;;27.02;;
39880;SDS011;25554;44.954;10.068;2023-12-29T10:15:47;47.28;;;28.80;;
39880;SDS011;25554;44.954;10.068;2023-12-29T10:18:22;45.20;;;27.38;;
39880;SDS011;25554;44.954;10.068;2023-12-29T10:21:46;55.05;;;28.50;;
39880;SDS011;25554;44.954;10.068;2023-12-29T10:24:04;45.75;;;26.98;;
39880;SDS011;25554;44.954;10.068;2023-12-29T10:26:32;44.50;;;26.77;;
39880;SDS011;25554;44.954;10.068;2023-12-29T10:29:12;46.53;;;28.00;;
39880;SDS011;25554;44.954;10.068;2023-12-29T10:31:40;50.08;;;29.08;;
39880;SDS011;25554;44.954;10.068;2023-12-29T10:34:25;45.65;;;28.08;;
39880;SDS011;25554;44.954;10.068;2023-12-29T10:37:04;51.08;;;27.67;;
39880;SDS011;25554;44.954;10.068;2023-12-29T10:39:35;56.75;;;27.80;;
39880;SDS011;25554;44.954;10.068;2023-12-29T10:42:07;50.10;;;28.95;;
39880;SDS011;25554;44.954;10.068;2023-12-29T10:44:36;47.83;;;28.80;;
39880;SDS011;25554;44.954;10.068;2023-12-29T10:47:12;50.47;;;29.40;;
39880;SDS011;25554;44.954;10.068;2023-12-29T10:49:40;54.13;;;29.25;;
39880;SDS011;25554;44.954;10.068;2023-12-29T10:52:12;52.40;;;29.75;;
39880;SDS011;25554;44.954;10.068;2023-12-29T10:54:42;54.20;;;29.35;;
39880;SDS011;25554;44.954;10.068;2023-12-29T10:57:12;48.10;;;29.95;;
39880;SDS011;25554;44.954;10.068;2023-12-29T10:59:39;50.40;;;30.05;;
39880;SDS011;25554;44.954;10.068;2023-12-29T11:02:06;53.03;;;32.60;;
39880;SDS011;25554;44.954;10.068;2023-12-29T11:04:34;53.75;;;30.90;;
39880;SDS011;25554;44.954;10.068;2023-12-29T11:09:27;46.45;;;28.10;;
39880;SDS011;25554;44.954;10.068;2023-12-29T11:11:59;53.67;;;29.05;;
39880;SDS011;25554;44.954;10.068;2023-12-29T11:14:27;51.33;;;29.80;;
39880;SDS011;25554;44.954;10.068;2023-12-29T11:16:55;50.38;;;30.85;;
39880;SDS011;25554;44.954;10.068;2023-12-29T11:19:22;52.47;;;29.65;;
39880;SDS011;25554;44.954;10.068;2023-12-29T11:24:21;47.53;;;29.60;;
39880;SDS011;25554;44.954;10.068;2023-12-29T11:26:49;51.28;;;28.65;;
39880;SDS011;25554;44.954;10.068;2023-12-29T11:29:23;50.83;;;30.67;;
39880;SDS011;25554;44.954;10.068;2023-12-29T11:32:02;52.85;;;28.80;;
39880;SDS011;25554;44.954;10.068;2023-12-29T11:34:34;52.63;;;29.88;;
39880;SDS011;25554;44.954;10.068;2023-12-29T11:37:18;52.45;;;29.50;;
39880;SDS011;25554;44.954;10.068;2023-12-29T11:42:38;47.13;;;29.98;;
39880;SDS011;25554;44.954;10.068;2023-12-29T11:48:10;51.58;;;28.33;;
39880;SDS011;25554;44.954;10.068;2023-12-29T11:50:40;47.00;;;28.92;;
39880;SDS011;25554;44.954;10.068;2023-12-29T11:53:07;45.00;;;27.77;;
39880;SDS011;25554;44.954;10.068;2023-12-29T11:55:38;47.75;;;28.05;;
39880;SDS011;25554;44.954;10.068;2023-12-29T11:58:24;52.17;;;30.13;;
39880;SDS011;25554;44.954;10.068;2023-12-29T12:00:55;53.40;;;28.63;;
39880;SDS011;25554;44.954;10.068;2023-12-29T12:03:26;44.58;;;27.50;;
39880;SDS011;25554;44.954;10.068;2023-12-29T12:06:01;46.75;;;27.00;;
39880;SDS011;25554;44.954;10.068;2023-12-29T12:08:35;46.03;;;26.48;;
39880;SDS011;25554;44.954;10.068;2023-12-29T12:17:35;47.28;;;27.02;;
39880;SDS011;25554;44.954;10.068;2023-12-29T12:20:09;43.88;;;27.83;;
39880;SDS011;25554;44.954;10.068;2023-12-29T12:22:37;48.63;;;28.83;;
39880;SDS011;25554;44.954;10.068;2023-12-29T12:25:04;45.50;;;27.13;;
39880;SDS011;25554;44.954;10.068;2023-12-29T12:27:32;42.85;;;25.67;;
39880;SDS011;25554;44.954;10.068;2023-12-29T12:30:00;47.13;;;27.15;;
39880;SDS011;25554;44.954;10.068;2023-12-29T12:32:28;46.83;;;26.52;;
39880;SDS011;25554;44.954;10.068;2023-12-29T12:34:56;49.50;;;28.02;;
39880;SDS011;25554;44.954;10.068;2023-12-29T12:37:27;48.03;;;28.08;;
39880;SDS011;25554;44.954;10.068;2023-12-29T12:39:55;48.35;;;28.40;;
39880;SDS011;25554;44.954;10.068;2023-12-29T12:42:22;53.65;;;28.52;;
39880;SDS011;25554;44.954;10.068;2023-12-29T12:44:54;51.22;;;28.55;;
39880;SDS011;25554;44.954;10.068;2023-12-29T12:47:25;48.10;;;27.67;;
39880;SDS011;25554;44.954;10.068;2023-12-29T12:50:14;50.42;;;27.73;;
39880;SDS011;25554;44.954;10.068;2023-12-29T12:52:41;47.80;;;26.75;;
39880;SDS011;25554;44.954;10.068;2023-12-29T12:55:08;45.28;;;27.38;;
39880;SDS011;25554;44.954;10.068;2023-12-29T12:57:37;46.58;;;27.77;;
39880;SDS011;25554;44.954;10.068;2023-12-29T13:00:04;44.33;;;27.95;;
39880;SDS011;25554;44.954;10.068;2023-12-29T13:02:32;49.55;;;27.70;;
39880;SDS011;25554;44.954;10.068;2023-12-29T13:04:59;42.35;;;28.13;;
39880;SDS011;25554;44.954;10.068;2023-12-29T13:07:30;42.72;;;26.45;;
39880;SDS011;25554;44.954;10.068;2023-12-29T13:09:57;43.45;;;27.40;;
39880;SDS011;25554;44.954;10.068;2023-12-29T13:12:24;48.95;;;27.15;;
39880;SDS011;25554;44.954;10.068;2023-12-29T13:14:51;48.70;;;26.95;;
39880;SDS011;25554;44.954;10.068;2023-12-29T13:17:19;40.35;;;24.58;;
39880;SDS011;25554;44.954;10.068;2023-12-29T13:19:56;44.55;;;26.35;;
39880;SDS011;25554;44.954;10.068;2023-12-29T13:22:26;47.58;;;25.30;;
39880;SDS011;25554;44.954;10.068;2023-12-29T13:24:56;49.60;;;27.50;;
39880;SDS011;25554;44.954;10.068;2023-12-29T13:27:23;48.38;;;26.65;;
39880;SDS011;25554;44.954;10.068;2023-12-29T13:29:49;53.80;;;28.27;;
39880;SDS011;25554;44.954;10.068;2023-12-29T13:32:19;52.53;;;29.38;;
39880;SDS011;25554;44.954;10.068;2023-12-29T13:35:04;46.75;;;26.92;;
39880;SDS011;25554;44.954;10.068;2023-12-29T13:37:51;47.97;;;26.67;;
39880;SDS011;25554;44.954;10.068;2023-12-29T13:40:47;48.13;;;26.25;;
39880;SDS011;25554;44.954;10.068;2023-12-29T13:45:54;43.13;;;24.70;;
39880;SDS011;25554;44.954;10.068;2023-12-29T13:48:21;44.05;;;27.20;;
39880;SDS011;25554;44.954;10.068;2023-12-29T13:50:48;48.67;;;26.02;;
39880;SDS011;25554;44.954;10.068;2023-12-29T13:53:19;46.50;;;26.45;;
39880;SDS011;25554;44.954;10.068;2023-12-29T13:56:30;51.10;;;27.37;;
39880;SDS011;25554;44.954;10.068;2023-12-29T13:59:14;45.70;;;25.30;;
39880;SDS011;25554;44.954;10.068;2023-12-29T14:01:41;45.35;;;25.60;;
39880;SDS011;25554;44.954;10.068;2023-12-29T14:04:08;51.65;;;27.13;;
39880;SDS011;25554;44.954;10.068;2023-12-29T14:09:04;45.35;;;26.20;;
39880;SDS011;25554;44.954;10.068;2023-12-29T14:11:32;46.00;;;26.73;;
39880;SDS011;25554;44.954;10.068;2023-12-29T14:14:14;48.85;;;26.92;;
39880;SDS011;25554;44.954;10.068;2023-12-29T14:16:51;44.60;;;25.92;;
39880;SDS011;25554;44.954;10.068;2023-12-29T14:19:18;45.85;;;25.58;;
39880;SDS011;25554;44.954;10.068;2023-12-29T14:21:47;45.45;;;25.85;;
39880;SDS011;25554;44.954;10.068;2023-12-29T14:24:24;46.80;;;27.88;;
39880;SDS011;25554;44.954;10.068;2023-12-29T14:29:20;50.28;;;27.67;;
39880;SDS011;25554;44.954;10.068;2023-12-29T14:31:47;43.38;;;26.13;;
39880;SDS011;25554;44.954;10.068;2023-12-29T14:34:18;48.33;;;28.83;;
39880;SDS011;25554;44.954;10.068;2023-12-29T14:36:47;49.30;;;27.80;;
39880;SDS011;25554;44.954;10.068;2023-12-29T14:39:15;49.22;;;27.20;;
39880;SDS011;25554;44.954;10.068;2023-12-29T14:41:45;50.20;;;27.48;;
39880;SDS011;25554;44.954;10.068;2023-12-29T14:44:14;53.45;;;29.13;;
39880;SDS011;25554;44.954;10.068;2023-12-29T14:46:50;48.00;;;26.70;;
39880;SDS011;25554;44.954;10.068;2023-12-29T14:49:17;45.20;;;26.95;;
39880;SDS011;25554;44.954;10.068;2023-12-29T14:51:46;46.85;;;27.63;;
39880;SDS011;25554;44.954;10.068;2023-12-29T14:54:14;44.60;;;26.05;;
39880;SDS011;25554;44.954;10.068;2023-12-29T14:56:40;55.00;;;27.15;;
39880;SDS011;25554;44.954;10.068;2023-12-29T14:59:16;54.15;;;27.88;;
39880;SDS011;25554;44.954;10.068;2023-12-29T15:01:49;48.05;;;27.20;;
39880;SDS011;25554;44.954;10.068;2023-12-29T15:04:19;45.50;;;24.92;;
39880;SDS011;25554;44.954;10.068;2023-12-29T15:06:46;46.50;;;25.85;;
39880;SDS011;25554;44.954;10.068;2023-12-29T15:09:13;41.88;;;25.77;;
39880;SDS011;25554;44.954;10.068;2023-12-29T15:11:40;43.90;;;25.48;;
39880;SDS011;25554;44.954;10.068;2023-12-29T15:14:08;41.38;;;24.50;;
39880;SDS011;25554;44.954;10.068;2023-12-29T15:16:36;50.47;;;24.73;;
39880;SDS011;25554;44.954;10.068;2023-12-29T15:21:31;42.78;;;24.70;;
39880;SDS011;25554;44.954;10.068;2023-12-29T15:23:58;42.28;;;26.52;;
39880;SDS011;25554;44.954;10.068;2023-12-29T15:26:26;44.35;;;27.10;;
39880;SDS011;25554;44.954;10.068;2023-12-29T15:28:57;45.92;;;24.85;;
39880;SDS011;25554;44.954;10.068;2023-12-29T15:31:24;44.20;;;26.13;;
39880;SDS011;25554;44.954;10.068;2023-12-29T15:34:24;44.65;;;25.58;;
39880;SDS011;25554;44.954;10.068;2023-12-29T15:36:43;40.80;;;25.48;;
39880;SDS011;25554;44.954;10.068;2023-12-29T15:39:11;44.30;;;25.95;;
39880;SDS011;25554;44.954;10.068;2023-12-29T15:41:45;47.95;;;26.63;;
39880;SDS011;25554;44.954;10.068;2023-12-29T15:44:11;46.30;;;26.45;;
39880;SDS011;25554;44.954;10.068;2023-12-29T15:46:38;48.85;;;26.08;;
39880;SDS011;25554;44.954;10.068;2023-12-29T15:49:06;44.97;;;26.58;;
39880;SDS011;25554;44.954;10.068;2023-12-29T15:51:33;44.40;;;25.83;;
39880;SDS011;25554;44.954;10.068;2023-12-29T15:54:01;53.60;;;29.27;;
39880;SDS011;25554;44.954;10.068;2023-12-29T15:59:14;51.15;;;27.90;;
39880;SDS011;25554;44.954;10.068;2023-12-29T16:01:40;48.03;;;27.13;;
39880;SDS011;25554;44.954;10.068;2023-12-29T16:04:07;50.97;;;29.73;;
39880;SDS011;25554;44.954;10.068;2023-12-29T16:06:33;53.67;;;29.98;;
39880;SDS011;25554;44.954;10.068;2023-12-29T16:09:03;47.65;;;26.55;;
39880;SDS011;25554;44.954;10.068;2023-12-29T16:11:30;42.13;;;25.17;;
39880;SDS011;25554;44.954;10.068;2023-12-29T16:13:57;47.22;;;28.55;;
39880;SDS011;25554;44.954;10.068;2023-12-29T16:16:24;47.88;;;28.73;;
39880;SDS011;25554;44.954;10.068;2023-12-29T16:18:57;54.05;;;30.50;;
39880;SDS011;25554;44.954;10.068;2023-12-29T16:21:24;54.60;;;32.30;;
39880;SDS011;25554;44.954;10.068;2023-12-29T16:23:54;68.25;;;38.80;;
39880;SDS011;25554;44.954;10.068;2023-12-29T16:26:21;81.18;;;41.10;;
39880;SDS011;25554;44.954;10.068;2023-12-29T16:28:47;52.80;;;30.08;;
39880;SDS011;25554;44.954;10.068;2023-12-29T16:31:14;49.97;;;29.92;;
39880;SDS011;25554;44.954;10.068;2023-12-29T16:36:10;44.53;;;26.33;;
39880;SDS011;25554;44.954;10.068;2023-12-29T16:38:38;48.63;;;26.85;;
39880;SDS011;25554;44.954;10.068;2023-12-29T16:41:15;51.92;;;28.50;;
39880;SDS011;25554;44.954;10.068;2023-12-29T16:43:47;48.45;;;27.85;;
39880;SDS011;25554;44.954;10.068;2023-12-29T16:46:14;52.22;;;28.02;;
39880;SDS011;25554;44.954;10.068;2023-12-29T16:48:41;49.25;;;29.30;;
39880;SDS011;25554;44.954;10.068;2023-12-29T16:53:34;48.88;;;27.10;;
39880;SDS011;25554;44.954;10.068;2023-12-29T16:56:01;46.05;;;27.30;;
39880;SDS011;25554;44.954;10.068;2023-12-29T16:58:28;47.10;;;28.55;;
39880;SDS011;25554;44.954;10.068;2023-12-29T17:00:55;44.45;;;26.95;;
39880;SDS011;25554;44.954;10.068;2023-12-29T17:03:22;46.90;;;27.83;;
39880;SDS011;25554;44.954;10.068;2023-12-29T17:05:49;47.67;;;27.17;;
39880;SDS011;25554;44.954;10.068;2023-12-29T17:08:15;51.72;;;28.52;;
39880;SDS011;25554;44.954;10.068;2023-12-29T17:10:42;57.40;;;30.83;;
39880;SDS011;25554;44.954;10.068;2023-12-29T17:13:08;47.90;;;28.17;;
39880;SDS011;25554;44.954;10.068;2023-12-29T17:15:35;48.63;;;28.73;;
39880;SDS011;25554;44.954;10.068;2023-12-29T17:18:03;52.30;;;28.92;;
39880;SDS011;25554;44.954;10.068;2023-12-29T17:20:31;46.85;;;28.33;;
39880;SDS011;25554;44.954;10.068;2023-12-29T17:23:00;51.05;;;30.40;;
39880;SDS011;25554;44.954;10.068;2023-12-29T17:25:38;48.90;;;27.73;;
39880;SDS011;25554;44.954;10.068;2023-12-29T17:28:49;49.63;;;27.77;;
39880;SDS011;25554;44.954;10.068;2023-12-29T17:31:32;50.00;;;27.42;;
39880;SDS011;25554;44.954;10.068;2023-12-29T17:34:15;46.95;;;27.63;;
39880;SDS011;25554;44.954;10.068;2023-12-29T17:36:43;48.20;;;29.30;;
39880;SDS011;25554;44.954;10.068;2023-12-29T17:39:10;48.95;;;28.38;;
39880;SDS011;25554;44.954;10.068;2023-12-29T17:41:36;48.88;;;28.27;;
39880;SDS011;25554;44.954;10.068;2023-12-29T17:44:03;52.95;;;29.90;;
39880;SDS011;25554;44.954;10.068;2023-12-29T17:48:56;64.00;;;34.17;;
39880;SDS011;25554;44.954;10.068;2023-12-29T17:51:22;47.88;;;28.00;;
39880;SDS011;25554;44.954;10.068;2023-12-29T17:53:54;47.75;;;29.25;;
39880;SDS011;25554;44.954;10.068;2023-12-29T17:56:21;53.28;;;30.35;;
39880;SDS011;25554;44.954;10.068;2023-12-29T17:58:47;55.70;;;30.23;;
39880;SDS011;25554;44.954;10.068;2023-12-29T18:01:14;49.58;;;30.00;;
39880;SDS011;25554;44.954;10.068;2023-12-29T18:03:40;49.15;;;29.55;;
39880;SDS011;25554;44.954;10.068;2023-12-29T18:06:08;48.67;;;29.52;;
39880;SDS011;25554;44.954;10.068;2023-12-29T18:08:38;48.28;;;29.70;;
39880;SDS011;25554;44.954;10.068;2023-12-29T18:11:09;45.22;;;27.92;;
39880;SDS011;25554;44.954;10.068;2023-12-29T18:13:35;54.17;;;31.33;;
39880;SDS011;25554;44.954;10.068;2023-12-29T18:16:09;50.25;;;29.70;;
39880;SDS011;25554;44.954;10.068;2023-12-29T18:18:37;48.47;;;29.55;;
39880;SDS011;25554;44.954;10.068;2023-12-29T18:21:04;52.67;;;30.52;;
39880;SDS011;25554;44.954;10.068;2023-12-29T18:23:34;53.55;;;31.13;;
39880;SDS011;25554;44.954;10.068;2023-12-29T18:26:01;50.25;;;29.95;;
39880;SDS011;25554;44.954;10.068;2023-12-29T18:28:29;48.88;;;28.10;;
39880;SDS011;25554;44.954;10.068;2023-12-29T18:30:57;58.20;;;34.20;;
39880;SDS011;25554;44.954;10.068;2023-12-29T18:33:26;54.92;;;30.00;;
39880;SDS011;25554;44.954;10.068;2023-12-29T18:35:53;46.22;;;28.63;;
39880;SDS011;25554;44.954;10.068;2023-12-29T18:38:20;51.15;;;29.67;;
39880;SDS011;25554;44.954;10.068;2023-12-29T18:43:14;45.33;;;27.02;;
39880;SDS011;25554;44.954;10.068;2023-12-29T18:45:43;52.58;;;32.42;;
39880;SDS011;25554;44.954;10.068;2023-12-29T18:48:10;57.75;;;31.33;;
39880;SDS011;25554;44.954;10.068;2023-12-29T18:50:36;56.65;;;32.25;;
39880;SDS011;25554;44.954;10.068;2023-12-29T18:53:03;49.53;;;30.30;;
39880;SDS011;25554;44.954;10.068;2023-12-29T18:55:30;55.95;;;30.75;;
39880;SDS011;25554;44.954;10.068;2023-12-29T18:57:57;49.75;;;29.65;;
39880;SDS011;25554;44.954;10.068;2023-12-29T19:02:49;55.47;;;30.42;;
39880;SDS011;25554;44.954;10.068;2023-12-29T19:05:16;55.05;;;29.50;;
39880;SDS011;25554;44.954;10.068;2023-12-29T19:10:09;52.85;;;30.10;;
39880;SDS011;25554;44.954;10.068;2023-12-29T19:12:37;52.13;;;30.63;;
39880;SDS011;25554;44.954;10.068;2023-12-29T19:15:04;52.17;;;30.77;;
39880;SDS011;25554;44.954;10.068;2023-12-29T19:17:31;52.78;;;30.58;;
39880;SDS011;25554;44.954;10.068;2023-12-29T19:19:58;57.75;;;31.60;;
39880;SDS011;25554;44.954;10.068;2023-12-29T19:22:28;52.67;;;32.63;;
39880;SDS011;25554;44.954;10.068;2023-12-29T19:25:06;52.70;;;30.90;;
39880;SDS011;25554;44.954;10.068;2023-12-29T19:27:33;52.88;;;31.25;;
39880;SDS011;25554;44.954;10.068;2023-12-29T19:30:00;52.25;;;29.48;;
39880;SDS011;25554;44.954;10.068;2023-12-29T19:32:27;55.95;;;29.38;;
39880;SDS011;25554;44.954;10.068;2023-12-29T19:34:53;52.17;;;29.90;;
39880;SDS011;25554;44.954;10.068;2023-12-29T19:37:20;51.85;;;30.58;;
39880;SDS011;25554;44.954;10.068;2023-12-29T19:39:47;51.58;;;30.65;;
39880;SDS011;25554;44.954;10.068;2023-12-29T19:42:13;53.47;;;31.58;;
39880;SDS011;25554;44.954;10.068;2023-12-29T19:44:40;52.28;;;31.23;;
39880;SDS011;25554;44.954;10.068;2023-12-29T19:47:07;50.85;;;30.50;;
39880;SDS011;25554;44.954;10.068;2023-12-29T19:49:35;60.30;;;32.00;;
39880;SDS011;25554;44.954;10.068;2023-12-29T19:52:17;52.88;;;31.35;;
39880;SDS011;25554;44.954;10.068;2023-12-29T19:54:52;57.13;;;33.78;;
39880;SDS011;25554;44.954;10.068;2023-12-29T19:57:20;63.47;;;34.22;;
39880;SDS011;25554;44.954;10.068;2023-12-29T20:02:13;57.63;;;31.98;;
39880;SDS011;25554;44.954;10.068;2023-12-29T20:04:42;52.38;;;30.48;;
39880;SDS011;25554;44.954;10.068;2023-12-29T20:07:14;54.97;;;32.75;;
39880;SDS011;25554;44.954;10.068;2023-12-29T20:09:43;54.08;;;30.77;;
39880;SDS011;25554;44.954;10.068;2023-12-29T20:12:12;50.45;;;30.52;;
39880;SDS011;25554;44.954;10.068;2023-12-29T20:14:45;56.25;;;32.70;;
39880;SDS011;25554;44.954;10.068;2023-12-29T20:17:12;61.45;;;34.28;;
39880;SDS011;25554;44.954;10.068;2023-12-29T20:19:40;55.00;;;33.30;;
39880;SDS011;25554;44.954;10.068;2023-12-29T20:22:06;58.33;;;34.03;;
39880;SDS011;25554;44.954;10.068;2023-12-29T20:24:33;56.22;;;33.92;;
39880;SDS011;25554;44.954;10.068;2023-12-29T20:27:06;57.85;;;35.15;;
39880;SDS011;25554;44.954;10.068;2023-12-29T20:29:32;58.45;;;35.22;;
39880;SDS011;25554;44.954;10.068;2023-12-29T20:32:01;64.55;;;36.03;;
39880;SDS011;25554;44.954;10.068;2023-12-29T20:34:27;62.67;;;35.28;;
39880;SDS011;25554;44.954;10.068;2023-12-29T20:36:54;60.55;;;35.67;;
39880;SDS011;25554;44.954;10.068;2023-12-29T20:39:20;64.63;;;34.85;;
39880;SDS011;25554;44.954;10.068;2023-12-29T20:41:53;60.08;;;36.13;;
39880;SDS011;25554;44.954;10.068;2023-12-29T20:44:20;61.45;;;35.42;;
39880;SDS011;25554;44.954;10.068;2023-12-29T20:49:33;62.70;;;34.50;;
39880;SDS011;25554;44.954;10.068;2023-12-29T20:52:00;56.45;;;33.30;;
39880;SDS011;25554;44.954;10.068;2023-12-29T20:54:26;63.60;;;34.97;;
39880;SDS011;25554;44.954;10.068;2023-12-29T20:56:57;59.42;;;35.30;;
39880;SDS011;25554;44.954;10.068;2023-12-29T20:59:24;56.58;;;33.22;;
39880;SDS011;25554;44.954;10.068;2023-12-29T21:01:53;66.70;;;37.00;;
39880;SDS011;25554;44.954;10.068;2023-12-29T21:04:19;56.20;;;32.00;;
39880;SDS011;25554;44.954;10.068;2023-12-29T21:06:47;60.30;;;36.97;;
39880;SDS011;25554;44.954;10.068;2023-12-29T21:09:24;61.47;;;36.55;;
39880;SDS011;25554;44.954;10.068;2023-12-29T21:11:52;64.57;;;34.72;;
39880;SDS011;25554;44.954;10.068;2023-12-29T21:14:24;64.22;;;36.72;;
39880;SDS011;25554;44.954;10.068;2023-12-29T21:17:06;57.92;;;35.50;;
39880;SDS011;25554;44.954;10.068;2023-12-29T21:19:36;71.50;;;38.77;;
39880;SDS011;25554;44.954;10.068;2023-12-29T21:22:02;60.35;;;35.17;;
39880;SDS011;25554;44.954;10.068;2023-12-29T21:24:29;55.20;;;32.13;;
39880;SDS011;25554;44.954;10.068;2023-12-29T21:27:07;61.67;;;34.30;;
39880;SDS011;25554;44.954;10.068;2023-12-29T21:29:34;65.60;;;36.80;;
39880;SDS011;25554;44.954;10.068;2023-12-29T21:32:07;58.40;;;35.75;;
39880;SDS011;25554;44.954;10.068;2023-12-29T21:34:34;55.67;;;33.13;;
39880;SDS011;25554;44.954;10.068;2023-12-29T21:37:01;56.42;;;34.63;;
39880;SDS011;25554;44.954;10.068;2023-12-29T21:39:28;57.00;;;33.08;;
39880;SDS011;25554;44.954;10.068;2023-12-29T21:41:55;56.83;;;33.13;;
39880;SDS011;25554;44.954;10.068;2023-12-29T21:44:27;54.72;;;32.08;;
39880;SDS011;25554;44.954;10.068;2023-12-29T21:49:28;57.53;;;34.00;;
39880;SDS011;25554;44.954;10.068;2023-12-29T21:51:56;70.40;;;37.28;;
39880;SDS011;25554;44.954;10.068;2023-12-29T21:54:23;63.63;;;36.03;;
39880;SDS011;25554;44.954;10.068;2023-12-29T21:56:50;63.45;;;36.28;;
39880;SDS011;25554;44.954;10.068;2023-12-29T21:59:18;67.72;;;37.28;;
39880;SDS011;25554;44.954;10.068;2023-12-29T22:04:13;58.90;;;34.67;;
39880;SDS011;25554;44.954;10.068;2023-12-29T22:06:41;65.60;;;37.92;;
39880;SDS011;25554;44.954;10.068;2023-12-29T22:09:08;64.72;;;37.70;;
39880;SDS011;25554;44.954;10.068;2023-12-29T22:11:38;62.97;;;35.70;;
39880;SDS011;25554;44.954;10.068;2023-12-29T22:16:31;68.90;;;37.47;;
39880;SDS011;25554;44.954;10.068;2023-12-29T22:19:03;71.00;;;37.20;;
39880;SDS011;25554;44.954;10.068;2023-12-29T22:21:31;62.90;;;37.10;;
39880;SDS011;25554;44.954;10.068;2023-12-29T22:23:58;65.20;;;36.58;;
39880;SDS011;25554;44.954;10.068;2023-12-29T22:26:24;63.08;;;38.63;;
39880;SDS011;25554;44.954;10.068;2023-12-29T22:28:52;70.53;;;37.20;;